Time;durP1;ratioP1;P1;durP2;ratioP2;P2;SDS_P1;SDS_P2;PMS_P1;PMS_P2;Temp;Humidity;BMP_temperature;BMP_pressure;BME280_temperature;BME280_humidity;BME280_pressure;Samples;Min_cycle;Max_cycle;Signal;HPM_P1;HPM_P2
2023/03/24 00:01:51;;;;;;;0.50;0.50;;;;;;;;;;4981373;28;20209;-84
2023/03/24 00:04:17;;;;;;;0.40;0.40;;;;;;;;;;4979561;28;20194;-84
2023/03/24 00:06:43;;;;;;;0.50;0.50;;;;;;;;;;4980112;28;20550;-84
2023/03/24 00:09:09;;;;;;;0.43;0.43;;;;;;;;;;4980627;28;20196;-84
2023/03/24 00:11:36;;;;;;;0.50;0.50;;;;;;;;;;4981926;28;20680;-84
2023/03/24 00:14:02;;;;;;;0.43;0.43;;;;;;;;;;4980963;28;20224;-84
2023/03/24 00:16:29;;;;;;;0.50;0.50;;;;;;;;;;4982025;28;20197;-84
2023/03/24 00:18:55;;;;;;;0.47;0.47;;;;;;;;;;4981800;28;20206;-84
2023/03/24 00:21:24;;;;;;;0.50;0.50;;;;;;;;;;4981261;28;20245;-84
2023/03/24 00:23:53;;;;;;;0.43;0.43;;;;;;;;;;4980929;28;20206;-85
2023/03/24 00:26:19;;;;;;;0.40;0.40;;;;;;;;;;4980677;28;20205;-84
2023/03/24 00:28:47;;;;;;;0.50;0.50;;;;;;;;;;4978953;28;20276;-84
2023/03/24 00:31:14;;;;;;;0.40;0.40;;;;;;;;;;4980729;28;20674;-84
2023/03/24 00:33:41;;;;;;;0.50;0.50;;;;;;;;;;4980611;28;20198;-84
2023/03/24 00:36:10;;;;;;;0.30;0.30;;;;;;;;;;4981735;28;20594;-84
2023/03/24 00:38:37;;;;;;;0.50;0.50;;;;;;;;;;4983898;28;20178;-84
2023/03/24 00:41:04;;;;;;;0.50;0.50;;;;;;;;;;4991399;28;20221;-84
2023/03/24 00:43:30;;;;;;;0.40;0.40;;;;;;;;;;4991409;28;20194;-84
2023/03/24 00:46:00;;;;;;;0.40;0.40;;;;;;;;;;4992979;28;20236;-84
2023/03/24 00:48:27;;;;;;;0.47;0.47;;;;;;;;;;4993313;28;20193;-83
2023/03/24 00:50:53;;;;;;;0.40;0.40;;;;;;;;;;4993323;28;20240;-84
2023/03/24 00:53:22;;;;;;;0.33;0.33;;;;;;;;;;4990837;28;20209;-84
2023/03/24 00:55:48;;;;;;;0.40;0.40;;;;;;;;;;4991403;28;20208;-83
2023/03/24 00:58:17;;;;;;;0.40;0.40;;;;;;;;;;4991218;28;20230;-84
2023/03/24 01:00:43;;;;;;;0.40;0.40;;;;;;;;;;4992343;28;20189;-83
2023/03/24 01:03:09;;;;;;;0.40;0.40;;;;;;;;;;4991890;28;20229;-84
2023/03/24 01:05:36;;;;;;;0.33;0.33;;;;;;;;;;4990405;28;20177;-84
2023/03/24 01:08:03;;;;;;;0.50;0.50;;;;;;;;;;4990428;28;20173;-85
2023/03/24 01:10:29;;;;;;;0.40;0.40;;;;;;;;;;4992171;28;20213;-83
2023/03/24 01:12:57;;;;;;;0.50;0.50;;;;;;;;;;4991716;28;20201;-83
2023/03/24 01:15:25;;;;;;;0.40;0.40;;;;;;;;;;4993009;28;20234;-84
2023/03/24 01:17:52;;;;;;;0.40;0.40;;;;;;;;;;4992865;28;20235;-84
2023/03/24 01:20:18;;;;;;;0.40;0.40;;;;;;;;;;4993218;28;20262;-83
2023/03/24 01:22:45;;;;;;;0.40;0.40;;;;;;;;;;4991865;28;20252;-83
2023/03/24 01:25:15;;;;;;;0.40;0.40;;;;;;;;;;4988616;28;20181;-85
2023/03/24 01:27:42;;;;;;;0.40;0.40;;;;;;;;;;4978932;28;20186;-83
2023/03/24 01:30:11;;;;;;;0.50;0.50;;;;;;;;;;4977825;28;20181;-84
2023/03/24 01:32:37;;;;;;;0.50;0.50;;;;;;;;;;4975642;28;20192;-82
2023/03/24 01:35:03;;;;;;;0.50;0.50;;;;;;;;;;4977879;28;20181;-84
2023/03/24 01:37:29;;;;;;;0.40;0.40;;;;;;;;;;4977291;28;20178;-83
2023/03/24 01:39:55;;;;;;;0.50;0.50;;;;;;;;;;4977859;28;20195;-83
2023/03/24 01:42:22;;;;;;;0.40;0.40;;;;;;;;;;4977496;28;20214;-84
2023/03/24 01:44:50;;;;;;;0.50;0.50;;;;;;;;;;4978287;28;20213;-84
2023/03/24 01:47:16;;;;;;;0.50;0.50;;;;;;;;;;4978468;28;20177;-83
2023/03/24 01:49:47;;;;;;;0.50;0.50;;;;;;;;;;4978562;28;20188;-84
2023/03/24 01:52:17;;;;;;;0.50;0.50;;;;;;;;;;4976890;28;20660;-84
2023/03/24 01:54:45;;;;;;;0.43;0.43;;;;;;;;;;4978367;28;20204;-83
2023/03/24 01:57:13;;;;;;;0.70;0.70;;;;;;;;;;4980873;28;20193;-84
2023/03/24 01:59:40;;;;;;;0.60;0.60;;;;;;;;;;4981104;28;20189;-82
2023/03/24 02:02:06;;;;;;;0.50;0.50;;;;;;;;;;4980819;28;20217;-83
2023/03/24 02:04:34;;;;;;;0.60;0.60;;;;;;;;;;4980928;28;20276;-83
2023/03/24 02:07:08;;;;;;;0.60;0.60;;;;;;;;;;4980764;28;20681;-83
2023/03/24 02:09:34;;;;;;;0.60;0.60;;;;;;;;;;4980838;28;20222;-84
2023/03/24 02:12:01;;;;;;;0.50;0.50;;;;;;;;;;4980806;28;20657;-83
2023/03/24 02:14:27;;;;;;;0.50;0.50;;;;;;;;;;4980602;28;20205;-83
2023/03/24 02:17:09;;;;;;;0.50;0.50;;;;;;;;;;4980834;28;20534;-83
2023/03/24 02:19:52;;;;;;;0.57;0.57;;;;;;;;;;4981190;28;20185;-83
2023/03/24 02:22:27;;;;;;;0.60;0.60;;;;;;;;;;4980686;28;20217;-83
2023/03/24 02:25:08;;;;;;;0.53;0.53;;;;;;;;;;4980638;28;20165;-84
2023/03/24 02:27:37;;;;;;;0.50;0.50;;;;;;;;;;4980662;28;20581;-83
2023/03/24 02:30:15;;;;;;;0.50;0.50;;;;;;;;;;4984295;28;20174;-84
2023/03/24 02:32:57;;;;;;;0.60;0.60;;;;;;;;;;4989910;28;20201;-84
2023/03/24 02:35:42;;;;;;;0.50;0.50;;;;;;;;;;4991681;28;20181;-83
2023/03/24 02:38:26;;;;;;;0.50;0.50;;;;;;;;;;4989010;28;20174;-84
2023/03/24 02:41:04;;;;;;;0.60;0.60;;;;;;;;;;4983127;28;20202;-83
2023/03/24 02:43:50;;;;;;;0.60;0.60;;;;;;;;;;4981892;28;20205;-83
2023/03/24 02:46:25;;;;;;;0.40;0.40;;;;;;;;;;4978638;28;20197;-84
2023/03/24 02:49:10;;;;;;;0.50;0.50;;;;;;;;;;4978693;28;20553;-83
2023/03/24 02:51:44;;;;;;;0.50;0.50;;;;;;;;;;4979721;28;20178;-83
2023/03/24 02:54:24;;;;;;;0.50;0.50;;;;;;;;;;4980028;28;20304;-84
2023/03/24 02:56:57;;;;;;;0.50;0.50;;;;;;;;;;4995358;28;20208;-84
2023/03/24 02:59:39;;;;;;;0.50;0.50;;;;;;;;;;4996946;28;20186;-83
2023/03/24 03:02:16;;;;;;;0.40;0.40;;;;;;;;;;4999807;28;20209;-83
2023/03/24 03:04:48;;;;;;;0.40;0.40;;;;;;;;;;4998437;28;20213;-83
2023/03/24 03:07:20;;;;;;;0.63;0.63;;;;;;;;;;4999330;28;20201;-83
2023/03/24 03:09:53;;;;;;;0.60;0.60;;;;;;;;;;4998790;28;20249;-82
2023/03/24 03:12:20;;;;;;;0.40;0.40;;;;;;;;;;4997840;28;20189;-84
2023/03/24 03:14:48;;;;;;;0.50;0.50;;;;;;;;;;4998545;28;20201;-83
2023/03/24 03:17:17;;;;;;;0.40;0.40;;;;;;;;;;4993076;28;20174;-83
2023/03/24 03:19:51;;;;;;;0.53;0.53;;;;;;;;;;4991793;28;20182;-84
2023/03/24 03:22:20;;;;;;;0.50;0.50;;;;;;;;;;4991875;28;20224;-82
2023/03/24 03:24:51;;;;;;;0.40;0.40;;;;;;;;;;4991016;28;20469;-83
2023/03/24 03:27:28;;;;;;;0.50;0.50;;;;;;;;;;4988689;28;20182;-83
2023/03/24 03:29:57;;;;;;;0.50;0.50;;;;;;;;;;4978005;28;20580;-83
2023/03/24 03:32:27;;;;;;;0.50;0.50;;;;;;;;;;4977057;28;20295;-83
2023/03/24 03:35:07;;;;;;;0.43;0.43;;;;;;;;;;4976862;28;20677;-83
2023/03/24 03:37:37;;;;;;;0.50;0.50;;;;;;;;;;4978064;28;20214;-84
2023/03/24 03:40:10;;;;;;;0.50;0.50;;;;;;;;;;4978766;28;20178;-84
2023/03/24 03:42:36;;;;;;;0.40;0.40;;;;;;;;;;4976873;28;20646;-83
2023/03/24 03:45:03;;;;;;;0.30;0.30;;;;;;;;;;4978533;28;20237;-84
2023/03/24 03:47:30;;;;;;;0.60;0.60;;;;;;;;;;4978477;28;20182;-84
2023/03/24 03:49:56;;;;;;;0.40;0.40;;;;;;;;;;4979193;28;20189;-83
2023/03/24 03:52:22;;;;;;;0.50;0.50;;;;;;;;;;4977470;28;20181;-83
2023/03/24 03:54:48;;;;;;;0.50;0.50;;;;;;;;;;4977512;28;20201;-83
2023/03/24 03:57:15;;;;;;;0.60;0.60;;;;;;;;;;4978367;28;20264;-84
2023/03/24 03:59:41;;;;;;;0.60;0.60;;;;;;;;;;4978098;28;20228;-84
2023/03/24 04:02:27;;;;;;;0.50;0.50;;;;;;;;;;4978347;28;20752;-84
2023/03/24 04:05:13;;;;;;;0.50;0.50;;;;;;;;;;4977682;28;20181;-84
2023/03/24 04:07:44;;;;;;;0.50;0.50;;;;;;;;;;4978013;28;20185;-84
2023/03/24 04:10:29;;;;;;;0.50;0.50;;;;;;;;;;4978318;28;20550;-84
2023/03/24 04:12:56;;;;;;;0.40;0.40;;;;;;;;;;4976563;28;20190;-84
2023/03/24 04:15:35;;;;;;;0.60;0.60;;;;;;;;;;4977005;28;20230;-84
2023/03/24 04:18:01;;;;;;;0.40;0.40;;;;;;;;;;4976001;28;20177;-83
2023/03/24 04:20:37;;;;;;;0.50;0.50;;;;;;;;;;4976736;28;20236;-84
2023/03/24 04:23:25;;;;;;;0.60;0.60;;;;;;;;;;4976148;28;20202;-84
2023/03/24 04:25:57;;;;;;;0.60;0.60;;;;;;;;;;4976636;28;20178;-83
2023/03/24 04:28:27;;;;;;;0.60;0.60;;;;;;;;;;4976334;28;20253;-84
2023/03/24 04:30:56;;;;;;;0.60;0.60;;;;;;;;;;4976564;28;20662;-83
2023/03/24 04:33:41;;;;;;;0.60;0.60;;;;;;;;;;4975642;28;20212;-84
2023/03/24 04:36:15;;;;;;;0.40;0.40;;;;;;;;;;4976792;28;20282;-84
2023/03/24 04:38:44;;;;;;;0.50;0.50;;;;;;;;;;4976407;28;20185;-84
2023/03/24 04:41:11;;;;;;;0.60;0.60;;;;;;;;;;4975710;28;20225;-84
2023/03/24 04:43:37;;;;;;;0.53;0.53;;;;;;;;;;4975657;28;20198;-84
2023/03/24 04:46:05;;;;;;;0.43;0.43;;;;;;;;;;4976413;28;20241;-84
2023/03/24 04:48:31;;;;;;;0.50;0.50;;;;;;;;;;4975944;28;20188;-84
2023/03/24 04:50:59;;;;;;;0.40;0.40;;;;;;;;;;4976332;28;20269;-84
2023/03/24 04:53:25;;;;;;;0.40;0.40;;;;;;;;;;4976250;28;20338;-84
2023/03/24 04:55:51;;;;;;;0.50;0.50;;;;;;;;;;4994137;28;20196;-82
2023/03/24 04:58:18;;;;;;;0.60;0.60;;;;;;;;;;4995517;28;20204;-83
2023/03/24 05:00:44;;;;;;;0.40;0.40;;;;;;;;;;4994517;28;20737;-83
2023/03/24 05:03:15;;;;;;;0.57;0.57;;;;;;;;;;4993974;28;20228;-82
2023/03/24 05:05:45;;;;;;;0.40;0.40;;;;;;;;;;4995184;28;20185;-83
2023/03/24 05:08:12;;;;;;;0.40;0.40;;;;;;;;;;4995740;28;20204;-83
2023/03/24 05:10:38;;;;;;;0.40;0.40;;;;;;;;;;4997261;28;20181;-82
2023/03/24 05:13:05;;;;;;;0.40;0.40;;;;;;;;;;5005354;28;20232;-83
2023/03/24 05:15:31;;;;;;;0.40;0.40;;;;;;;;;;5016346;28;20184;-84
2023/03/24 05:17:57;;;;;;;0.50;0.50;;;;;;;;;;4999341;28;20177;-83
2023/03/24 05:20:23;;;;;;;0.60;0.60;;;;;;;;;;4995143;28;20280;-82
2023/03/24 05:22:50;;;;;;;0.40;0.40;;;;;;;;;;4994379;28;20220;-82
2023/03/24 05:25:17;;;;;;;0.70;0.70;;;;;;;;;;4995006;28;20181;-83
2023/03/24 05:27:43;;;;;;;0.40;0.40;;;;;;;;;;4994741;28;20188;-83
2023/03/24 05:30:09;;;;;;;0.60;0.60;;;;;;;;;;4995567;28;20299;-84
2023/03/24 05:32:35;;;;;;;0.47;0.47;;;;;;;;;;4994442;28;20522;-86
2023/03/24 05:35:01;;;;;;;0.50;0.50;;;;;;;;;;4994254;28;20629;-83
2023/03/24 05:37:27;;;;;;;0.50;0.50;;;;;;;;;;4993140;28;20300;-84
2023/03/24 05:39:54;;;;;;;0.50;0.50;;;;;;;;;;4994328;28;20173;-81
2023/03/24 05:42:20;;;;;;;0.50;0.50;;;;;;;;;;4993561;28;20327;-82
2023/03/24 05:44:46;;;;;;;0.40;0.40;;;;;;;;;;4993648;28;20181;-82
2023/03/24 05:47:17;;;;;;;0.60;0.60;;;;;;;;;;4993657;28;20291;-82
2023/03/24 05:49:43;;;;;;;0.43;0.43;;;;;;;;;;4993673;28;20192;-82
2023/03/24 05:52:09;;;;;;;0.50;0.50;;;;;;;;;;4994026;28;20181;-83
2023/03/24 05:54:38;;;;;;;0.43;0.43;;;;;;;;;;4993439;28;20204;-82
2023/03/24 05:57:04;;;;;;;0.47;0.47;;;;;;;;;;4994427;28;20180;-83
2023/03/24 05:59:30;;;;;;;0.40;0.40;;;;;;;;;;4994952;28;20200;-81
2023/03/24 06:01:57;;;;;;;0.40;0.40;;;;;;;;;;4993223;28;20299;-81
2023/03/24 06:04:23;;;;;;;0.50;0.50;;;;;;;;;;4993906;28;20193;-82
2023/03/24 06:06:49;;;;;;;0.50;0.50;;;;;;;;;;4996014;28;20177;-81
2023/03/24 06:09:16;;;;;;;0.50;0.50;;;;;;;;;;4994894;28;20181;-81
2023/03/24 06:11:45;;;;;;;0.40;0.40;;;;;;;;;;4995574;28;20181;-82
2023/03/24 06:14:11;;;;;;;0.50;0.50;;;;;;;;;;4993170;28;20209;-82
2023/03/24 06:16:41;;;;;;;0.40;0.40;;;;;;;;;;4996664;28;20177;-82
2023/03/24 06:19:07;;;;;;;0.40;0.40;;;;;;;;;;4992975;28;20174;-82
2023/03/24 06:21:34;;;;;;;0.50;0.50;;;;;;;;;;4993157;28;20217;-82
2023/03/24 06:24:02;;;;;;;0.50;0.50;;;;;;;;;;4993845;28;20197;-82
2023/03/24 06:26:29;;;;;;;0.40;0.40;;;;;;;;;;4990053;28;20241;-83
2023/03/24 06:28:57;;;;;;;0.50;0.50;;;;;;;;;;4993263;28;21748;-83
2023/03/24 06:31:23;;;;;;;0.40;0.40;;;;;;;;;;4991244;28;20191;-84
2023/03/24 06:33:49;;;;;;;0.50;0.50;;;;;;;;;;4994557;28;20189;-82
2023/03/24 06:36:15;;;;;;;0.43;0.43;;;;;;;;;;4990831;28;20189;-82
2023/03/24 06:38:41;;;;;;;0.60;0.60;;;;;;;;;;4992195;28;20725;-82
2023/03/24 06:41:07;;;;;;;0.40;0.40;;;;;;;;;;4994517;28;20347;-82
2023/03/24 06:43:33;;;;;;;0.40;0.40;;;;;;;;;;5001842;28;20197;-82
2023/03/24 06:45:59;;;;;;;0.43;0.43;;;;;;;;;;5017865;28;20392;-82
2023/03/24 06:48:26;;;;;;;0.40;0.40;;;;;;;;;;5018470;28;20170;-82
2023/03/24 06:50:52;;;;;;;0.40;0.40;;;;;;;;;;5001705;28;20173;-82
2023/03/24 06:53:20;;;;;;;0.40;0.40;;;;;;;;;;4996437;28;20239;-83
2023/03/24 06:55:47;;;;;;;0.40;0.40;;;;;;;;;;4996572;28;20252;-83
2023/03/24 06:58:13;;;;;;;0.50;0.50;;;;;;;;;;4997785;28;20173;-83
2023/03/24 07:00:40;;;;;;;0.50;0.50;;;;;;;;;;4998234;28;20233;-84
2023/03/24 07:03:07;;;;;;;0.50;0.50;;;;;;;;;;4999752;28;20288;-83
2023/03/24 07:05:33;;;;;;;0.40;0.40;;;;;;;;;;5016320;28;20174;-83
2023/03/24 07:07:59;;;;;;;0.50;0.50;;;;;;;;;;5018751;28;20187;-83
2023/03/24 07:10:25;;;;;;;0.40;0.40;;;;;;;;;;5016369;28;20170;-82
2023/03/24 07:12:51;;;;;;;0.50;0.50;;;;;;;;;;5017075;28;20177;-79
2023/03/24 07:15:17;;;;;;;0.40;0.40;;;;;;;;;;5013567;28;20187;-79
2023/03/24 07:17:43;;;;;;;0.40;0.40;;;;;;;;;;5013817;28;20180;-79
2023/03/24 07:20:09;;;;;;;0.47;0.47;;;;;;;;;;5015666;28;20177;-81
2023/03/24 07:22:38;;;;;;;0.50;0.50;;;;;;;;;;5005785;28;20217;-81
2023/03/24 07:25:05;;;;;;;0.50;0.50;;;;;;;;;;5002272;28;20233;-80
2023/03/24 07:27:34;;;;;;;0.50;0.50;;;;;;;;;;5002337;28;20180;-82
2023/03/24 07:30:00;;;;;;;0.40;0.40;;;;;;;;;;5001738;28;20296;-83
2023/03/24 07:32:29;;;;;;;0.50;0.50;;;;;;;;;;5001762;28;20173;-84
2023/03/24 07:34:56;;;;;;;0.47;0.47;;;;;;;;;;5002050;28;20237;-82
2023/03/24 07:37:22;;;;;;;0.50;0.50;;;;;;;;;;5002228;28;20267;-82
2023/03/24 07:39:48;;;;;;;0.50;0.50;;;;;;;;;;5000484;28;20530;-82
2023/03/24 07:42:14;;;;;;;0.50;0.50;;;;;;;;;;5000080;28;20557;-82
2023/03/24 07:44:40;;;;;;;0.50;0.50;;;;;;;;;;4997587;28;20348;-81
2023/03/24 07:47:06;;;;;;;0.40;0.40;;;;;;;;;;4997824;28;20189;-82
2023/03/24 07:49:32;;;;;;;0.50;0.50;;;;;;;;;;4998643;28;20831;-84
2023/03/24 07:51:58;;;;;;;0.60;0.60;;;;;;;;;;5001064;28;20327;-83
2023/03/24 07:54:25;;;;;;;0.60;0.60;;;;;;;;;;5000427;28;20197;-85
2023/03/24 07:56:51;;;;;;;0.50;0.50;;;;;;;;;;5002239;28;20181;-83
2023/03/24 07:59:17;;;;;;;0.60;0.60;;;;;;;;;;5000205;28;20197;-85
2023/03/24 08:01:43;;;;;;;0.50;0.50;;;;;;;;;;5001017;28;20291;-84
2023/03/24 08:04:13;;;;;;;0.50;0.50;;;;;;;;;;4998997;28;20201;-84
2023/03/24 08:06:39;;;;;;;0.60;0.60;;;;;;;;;;5001430;28;20174;-85
2023/03/24 08:09:05;;;;;;;0.50;0.50;;;;;;;;;;5000508;28;20396;-83
2023/03/24 08:11:31;;;;;;;0.43;0.43;;;;;;;;;;4997973;28;20170;-83
2023/03/24 08:13:57;;;;;;;0.50;0.50;;;;;;;;;;4999245;28;20201;-81
2023/03/24 08:16:23;;;;;;;0.47;0.47;;;;;;;;;;5000086;28;20204;-83
2023/03/24 08:18:49;;;;;;;0.50;0.50;;;;;;;;;;5001480;28;20177;-83
2023/03/24 08:21:15;;;;;;;0.50;0.50;;;;;;;;;;4999793;28;20211;-82
2023/03/24 08:23:41;;;;;;;0.60;0.60;;;;;;;;;;5000325;28;20201;-83
2023/03/24 08:26:09;;;;;;;0.60;0.60;;;;;;;;;;5000501;28;20652;-82
2023/03/24 08:28:36;;;;;;;0.50;0.50;;;;;;;;;;4998493;28;20264;-81
2023/03/24 08:31:02;;;;;;;0.47;0.47;;;;;;;;;;4997962;28;20185;-81
2023/03/24 08:33:28;;;;;;;0.50;0.50;;;;;;;;;;4997584;28;20193;-82
2023/03/24 08:35:56;;;;;;;0.60;0.60;;;;;;;;;;4999562;28;20181;-82
2023/03/24 08:38:29;;;;;;;0.50;0.50;;;;;;;;;;4980031;28;20186;-85
2023/03/24 08:40:55;;;;;;;0.57;0.57;;;;;;;;;;4988623;28;20164;-83
2023/03/24 08:43:22;;;;;;;0.50;0.50;;;;;;;;;;4998395;28;20205;-81
2023/03/24 08:45:48;;;;;;;0.50;0.50;;;;;;;;;;5015545;28;20181;-81
2023/03/24 08:48:14;;;;;;;0.53;0.53;;;;;;;;;;5013612;28;20193;-80
2023/03/24 08:50:40;;;;;;;0.50;0.50;;;;;;;;;;5004923;28;20177;-83
2023/03/24 08:53:07;;;;;;;0.60;0.60;;;;;;;;;;4997819;28;20282;-81
2023/03/24 08:55:36;;;;;;;0.60;0.60;;;;;;;;;;4997032;28;20174;-82
2023/03/24 08:58:02;;;;;;;0.50;0.50;;;;;;;;;;4997587;28;20177;-82
2023/03/24 09:00:28;;;;;;;0.40;0.40;;;;;;;;;;4999700;28;20579;-83
2023/03/24 09:02:54;;;;;;;0.50;0.50;;;;;;;;;;4998896;28;20284;-81
2023/03/24 09:05:21;;;;;;;0.50;0.50;;;;;;;;;;5000305;28;20184;-81
2023/03/24 09:07:47;;;;;;;0.50;0.50;;;;;;;;;;5000177;28;20176;-82
2023/03/24 09:10:14;;;;;;;0.57;0.57;;;;;;;;;;4999190;28;20567;-80
2023/03/24 09:12:40;;;;;;;0.53;0.53;;;;;;;;;;4998690;28;20641;-81
2023/03/24 09:15:07;;;;;;;0.60;0.60;;;;;;;;;;4999026;28;20185;-83
2023/03/24 09:17:34;;;;;;;0.50;0.50;;;;;;;;;;4998776;28;20184;-79
2023/03/24 09:20:00;;;;;;;0.50;0.50;;;;;;;;;;4999695;28;20231;-81
2023/03/24 09:22:26;;;;;;;0.60;0.60;;;;;;;;;;4999524;28;20216;-80
2023/03/24 09:24:52;;;;;;;0.40;0.40;;;;;;;;;;4998304;28;20216;-81
2023/03/24 09:27:18;;;;;;;0.60;0.60;;;;;;;;;;4997184;28;20192;-80
2023/03/24 09:29:45;;;;;;;0.50;0.50;;;;;;;;;;4998178;28;20178;-79
2023/03/24 09:32:10;;;;;;;0.47;0.47;;;;;;;;;;4997953;28;20181;-80
2023/03/24 09:34:37;;;;;;;0.50;0.50;;;;;;;;;;4998272;28;20197;-81
2023/03/24 09:37:03;;;;;;;0.50;0.50;;;;;;;;;;4998282;28;20240;-81
2023/03/24 09:39:29;;;;;;;0.47;0.47;;;;;;;;;;4997886;28;20173;-82
2023/03/24 09:41:55;;;;;;;0.40;0.40;;;;;;;;;;4991060;28;20225;-80
2023/03/24 09:44:25;;;;;;;0.60;0.60;;;;;;;;;;4994486;28;20213;-82
2023/03/24 09:46:57;;;;;;;0.50;0.50;;;;;;;;;;4998627;28;20721;-81
2023/03/24 09:49:26;;;;;;;0.50;0.50;;;;;;;;;;4998482;28;20235;-80
2023/03/24 09:52:00;;;;;;;0.30;0.30;;;;;;;;;;4997913;28;20181;-81
2023/03/24 09:54:28;;;;;;;0.40;0.40;;;;;;;;;;4999023;28;20260;-81
2023/03/24 09:56:54;;;;;;;0.40;0.40;;;;;;;;;;4999580;28;20174;-83
2023/03/24 09:59:20;;;;;;;0.50;0.50;;;;;;;;;;4998228;28;20585;-83
2023/03/24 10:01:47;;;;;;;0.50;0.50;;;;;;;;;;4999493;28;20216;-80
2023/03/24 10:04:18;;;;;;;0.50;0.50;;;;;;;;;;4997506;28;20197;-83
2023/03/24 10:06:45;;;;;;;0.50;0.50;;;;;;;;;;4994294;28;20189;-79
2023/03/24 10:09:14;;;;;;;0.47;0.47;;;;;;;;;;4993914;28;20184;-80
2023/03/24 10:11:59;;;;;;;0.50;0.50;;;;;;;;;;4996235;28;20180;-84
2023/03/24 10:14:43;;;;;;;0.50;0.50;;;;;;;;;;4988325;28;20283;-81
2023/03/24 10:17:20;;;;;;;0.40;0.40;;;;;;;;;;5000129;28;20265;-81
2023/03/24 10:19:56;;;;;;;0.30;0.30;;;;;;;;;;5006097;28;20164;-81
2023/03/24 10:22:22;;;;;;;0.47;0.47;;;;;;;;;;5019340;28;20208;-86
2023/03/24 10:25:04;;;;;;;0.40;0.40;;;;;;;;;;5017404;28;20188;-80
2023/03/24 10:27:56;;;;;;;0.40;0.40;;;;;;;;;;5001633;28;20177;-82
2023/03/24 10:30:23;;;;;;;0.40;0.40;;;;;;;;;;4986238;28;20204;-82
2023/03/24 10:32:49;;;;;;;0.50;0.50;;;;;;;;;;5000735;28;20189;-81
2023/03/24 10:35:19;;;;;;;0.33;0.33;;;;;;;;;;5001626;28;20169;-80
2023/03/24 10:37:45;;;;;;;0.40;0.40;;;;;;;;;;5010842;28;20208;-80
2023/03/24 10:40:16;;;;;;;0.40;0.40;;;;;;;;;;5013849;28;20168;-81
2023/03/24 10:42:43;;;;;;;0.40;0.40;;;;;;;;;;5012594;28;20340;-82
2023/03/24 10:45:13;;;;;;;0.40;0.40;;;;;;;;;;5014146;28;20193;-80
2023/03/24 10:47:40;;;;;;;0.40;0.40;;;;;;;;;;4992318;28;20165;-81
2023/03/24 10:50:08;;;;;;;0.40;0.40;;;;;;;;;;5000437;28;20185;-82
2023/03/24 10:52:39;;;;;;;0.40;0.40;;;;;;;;;;4999929;28;20584;-79
2023/03/24 10:55:06;;;;;;;0.60;0.60;;;;;;;;;;4998467;28;20525;-82
2023/03/24 10:57:33;;;;;;;0.43;0.43;;;;;;;;;;5027612;23;20234;-82
2023/03/24 10:59:59;;;;;;;0.30;0.30;;;;;;;;;;5022113;28;20188;-83
2023/03/24 11:02:30;;;;;;;0.40;0.40;;;;;;;;;;5020478;28;20209;-85
2023/03/24 11:04:57;;;;;;;0.40;0.40;;;;;;;;;;5010543;28;20240;-81
2023/03/24 11:07:32;;;;;;;0.50;0.50;;;;;;;;;;5012151;28;20204;-82
2023/03/24 11:10:20;;;;;;;0.37;0.37;;;;;;;;;;5008142;28;20199;-81
2023/03/24 11:12:57;;;;;;;0.60;0.60;;;;;;;;;;4998512;28;20279;-80
2023/03/24 11:15:30;;;;;;;0.60;0.60;;;;;;;;;;4999788;28;20204;-81
2023/03/24 11:17:56;;;;;;;0.40;0.40;;;;;;;;;;4997317;28;20213;-80
2023/03/24 11:20:33;;;;;;;0.40;0.40;;;;;;;;;;5000154;28;20192;-81
2023/03/24 11:23:04;;;;;;;0.40;0.40;;;;;;;;;;4991559;28;20243;-82
2023/03/24 11:25:31;;;;;;;0.40;0.40;;;;;;;;;;4999347;28;20232;-81
2023/03/24 11:28:02;;;;;;;0.40;0.40;;;;;;;;;;4997142;28;20185;-81
2023/03/24 11:30:32;;;;;;;0.40;0.40;;;;;;;;;;4999024;28;20181;-80
2023/03/24 11:32:58;;;;;;;0.50;0.50;;;;;;;;;;4998890;28;20232;-80
2023/03/24 11:35:24;;;;;;;0.40;0.40;;;;;;;;;;4998528;28;20181;-81
2023/03/24 11:37:50;;;;;;;0.40;0.40;;;;;;;;;;4999671;28;20184;-81
2023/03/24 11:40:19;;;;;;;0.40;0.40;;;;;;;;;;4999795;28;20192;-80
2023/03/24 11:42:49;;;;;;;0.50;0.50;;;;;;;;;;4999227;28;20634;-81
2023/03/24 11:45:36;;;;;;;0.40;0.40;;;;;;;;;;5001796;28;20668;-81
2023/03/24 11:48:10;;;;;;;0.30;0.30;;;;;;;;;;4998297;28;20177;-79
2023/03/24 11:50:37;;;;;;;0.30;0.30;;;;;;;;;;4999374;28;20231;-82
2023/03/24 11:53:19;;;;;;;0.40;0.40;;;;;;;;;;4998227;28;20201;-80
2023/03/24 11:55:52;;;;;;;0.40;0.40;;;;;;;;;;4998615;28;20177;-81
2023/03/24 11:58:28;;;;;;;0.40;0.40;;;;;;;;;;4998519;28;20660;-80
2023/03/24 12:00:56;;;;;;;0.40;0.40;;;;;;;;;;5001362;28;20276;-80
2023/03/24 12:03:25;;;;;;;0.50;0.50;;;;;;;;;;5001704;28;20201;-80
2023/03/24 12:06:01;;;;;;;0.50;0.50;;;;;;;;;;5001750;28;20177;-79
2023/03/24 12:08:33;;;;;;;0.47;0.47;;;;;;;;;;4998980;28;20181;-80
2023/03/24 12:11:20;;;;;;;0.50;0.50;;;;;;;;;;4999089;28;20609;-80
2023/03/24 12:13:50;;;;;;;0.50;0.50;;;;;;;;;;4997442;28;20200;-80
2023/03/24 12:16:21;;;;;;;0.30;0.30;;;;;;;;;;4998086;28;20625;-82
2023/03/24 12:18:53;;;;;;;0.30;0.30;;;;;;;;;;4998295;28;20177;-81
2023/03/24 12:21:28;;;;;;;0.47;0.47;;;;;;;;;;4997876;28;20591;-79
2023/03/24 12:23:58;;;;;;;0.50;0.50;;;;;;;;;;4997954;28;20295;-80
2023/03/24 12:26:28;;;;;;;0.50;0.50;;;;;;;;;;4996286;28;20562;-82
2023/03/24 12:29:00;;;;;;;0.53;0.53;;;;;;;;;;4996279;28;20221;-81
2023/03/24 12:31:35;;;;;;;0.40;0.40;;;;;;;;;;4998145;28;20181;-80
2023/03/24 12:34:01;;;;;;;0.40;0.40;;;;;;;;;;4997955;28;20275;-82
2023/03/24 12:36:45;;;;;;;0.57;0.57;;;;;;;;;;4997374;28;20664;-83
2023/03/24 12:39:13;;;;;;;0.50;0.50;;;;;;;;;;4996935;28;20184;-81
2023/03/24 12:41:44;;;;;;;0.50;0.50;;;;;;;;;;4996869;28;20296;-82
2023/03/24 12:44:29;;;;;;;0.40;0.40;;;;;;;;;;4997069;28;20208;-81
2023/03/24 12:47:14;;;;;;;0.40;0.40;;;;;;;;;;4997428;28;20208;-82
2023/03/24 12:49:43;;;;;;;0.40;0.40;;;;;;;;;;4997640;28;20640;-82
2023/03/24 12:52:17;;;;;;;0.43;0.43;;;;;;;;;;4997089;28;20193;-81
2023/03/24 12:54:53;;;;;;;0.43;0.43;;;;;;;;;;4998841;28;20220;-83
2023/03/24 12:57:22;;;;;;;0.40;0.40;;;;;;;;;;4995121;28;20211;-81
2023/03/24 12:59:57;;;;;;;0.50;0.50;;;;;;;;;;4993887;28;20185;-81
2023/03/24 13:02:30;;;;;;;0.43;0.43;;;;;;;;;;4986870;28;20343;-81
2023/03/24 13:05:03;;;;;;;0.40;0.40;;;;;;;;;;4987390;28;20180;-81
2023/03/24 13:07:30;;;;;;;0.40;0.40;;;;;;;;;;4996388;28;20189;-82
2023/03/24 13:10:12;;;;;;;0.40;0.40;;;;;;;;;;4996990;28;20177;-81
2023/03/24 13:12:41;;;;;;;0.40;0.40;;;;;;;;;;4995700;28;20273;-80
2023/03/24 13:15:13;;;;;;;0.40;0.40;;;;;;;;;;4997994;28;20177;-81
2023/03/24 13:17:48;;;;;;;0.40;0.40;;;;;;;;;;4996509;28;20328;-82
2023/03/24 13:20:33;;;;;;;0.40;0.40;;;;;;;;;;4995393;28;20181;-82
2023/03/24 13:23:03;;;;;;;0.40;0.40;;;;;;;;;;4992061;28;20252;-83
2023/03/24 13:25:47;;;;;;;0.43;0.43;;;;;;;;;;4995615;28;20250;-82
2023/03/24 13:28:22;;;;;;;0.37;0.37;;;;;;;;;;4994990;28;20212;-81
2023/03/24 13:30:49;;;;;;;0.40;0.40;;;;;;;;;;4995399;28;20218;-82
2023/03/24 13:33:25;;;;;;;0.40;0.40;;;;;;;;;;4994972;28;20234;-81
2023/03/24 13:35:51;;;;;;;0.50;0.50;;;;;;;;;;4994375;28;20172;-83
2023/03/24 13:38:33;;;;;;;0.40;0.40;;;;;;;;;;4996553;28;20274;-80
2023/03/24 13:41:03;;;;;;;0.40;0.40;;;;;;;;;;4987700;28;20188;-81
2023/03/24 13:43:30;;;;;;;0.30;0.30;;;;;;;;;;4995792;28;20205;-82
2023/03/24 13:46:00;;;;;;;0.40;0.40;;;;;;;;;;4996292;28;20177;-83
2023/03/24 13:48:36;;;;;;;0.40;0.40;;;;;;;;;;4995507;28;20169;-82
2023/03/24 13:51:16;;;;;;;0.40;0.40;;;;;;;;;;4998040;28;20181;-81
2023/03/24 13:53:55;;;;;;;0.40;0.40;;;;;;;;;;4999880;28;20196;-83
2023/03/24 13:56:23;;;;;;;0.30;0.30;;;;;;;;;;4999563;28;20215;-83
2023/03/24 13:58:58;;;;;;;0.30;0.30;;;;;;;;;;4996179;28;20217;-82
2023/03/24 14:01:41;;;;;;;0.30;0.30;;;;;;;;;;4996439;28;20578;-82
2023/03/24 14:04:19;;;;;;;0.30;0.30;;;;;;;;;;4998625;28;20267;-81
2023/03/24 14:06:46;;;;;;;0.40;0.40;;;;;;;;;;4999178;28;20252;-81
2023/03/24 14:09:17;;;;;;;0.30;0.30;;;;;;;;;;5003467;28;20181;-82
2023/03/24 14:11:44;;;;;;;0.43;0.43;;;;;;;;;;5009209;28;20253;-81
2023/03/24 14:14:13;;;;;;;0.43;0.43;;;;;;;;;;5005532;28;20201;-80
2023/03/24 14:16:44;;;;;;;0.50;0.50;;;;;;;;;;5002797;28;20276;-80
2023/03/24 14:19:16;;;;;;;0.47;0.47;;;;;;;;;;5000842;28;20181;-80
2023/03/24 14:21:42;;;;;;;0.43;0.43;;;;;;;;;;5001239;28;20217;-80
2023/03/24 14:24:17;;;;;;;0.50;0.50;;;;;;;;;;4999928;28;20684;-82
2023/03/24 14:26:43;;;;;;;0.50;0.50;;;;;;;;;;5000123;28;20279;-81
2023/03/24 14:29:48;;;;;;;0.50;0.50;;;;;;;;;;5003468;28;20181;-81
2023/03/24 14:32:16;;;;;;;0.60;0.60;;;;;;;;;;4939495;29;20195;-82
2023/03/24 14:34:50;;;;;;;0.60;0.60;;;;;;;;;;4937899;29;20266;-82
2023/03/24 14:37:16;;;;;;;0.50;0.50;;;;;;;;;;4970724;28;20613;-83
2023/03/24 14:39:48;;;;;;;0.43;0.43;;;;;;;;;;4998177;28;20618;-81
2023/03/24 14:42:27;;;;;;;0.60;0.60;;;;;;;;;;4992568;28;20223;-85
2023/03/24 14:44:54;;;;;;;0.60;0.60;;;;;;;;;;4992750;28;20216;-81
2023/03/24 14:47:21;;;;;;;0.50;0.50;;;;;;;;;;4999001;28;20264;-81
2023/03/24 14:49:48;;;;;;;0.50;0.50;;;;;;;;;;4998967;28;20589;-81
2023/03/24 14:52:31;;;;;;;0.50;0.50;;;;;;;;;;4998073;28;20181;-84
2023/03/24 14:54:57;;;;;;;0.50;0.50;;;;;;;;;;5004261;28;20208;-81
2023/03/24 14:57:25;;;;;;;0.50;0.50;;;;;;;;;;5010876;28;20185;-82
2023/03/24 14:59:51;;;;;;;0.60;0.60;;;;;;;;;;5009392;28;20236;-82